createdAt,value
2018-02-15T00:01:23.155Z,931.22
2018-02-15T00:02:54.969Z,931.21
2018-02-15T00:04:26.784Z,931.22
2018-02-15T00:05:58.597Z,931.22
2018-02-15T00:07:30.411Z,931.26
2018-02-15T00:09:02.226Z,931.25
2018-02-15T00:10:34.941Z,931.23
2018-02-15T00:12:05.854Z,931.22
2018-02-15T00:13:37.668Z,931.24
2018-02-15T00:15:09.482Z,931.19
2018-02-15T00:16:41.297Z,931.20
2018-02-15T00:18:13.112Z,931.22
2018-02-15T00:19:44.925Z,931.20
2018-02-15T00:21:16.739Z,931.26
2018-02-15T00:22:48.553Z,931.30
2018-02-15T00:24:20.821Z,931.27
2018-02-15T00:25:52.181Z,931.29
2018-02-15T00:27:23.996Z,931.29
2018-02-15T00:28:55.912Z,931.33
2018-02-15T00:30:27.623Z,931.38
2018-02-15T00:31:59.438Z,931.38
2018-02-15T00:33:31.252Z,931.45
2018-02-15T00:35:03.066Z,931.47
2018-02-15T00:36:34.880Z,931.45
2018-02-15T00:38:06.694Z,931.48
2018-02-15T00:39:38.508Z,931.44
2018-02-15T00:41:10.322Z,931.48
2018-02-15T00:42:42.136Z,931.50
2018-02-15T00:44:13.950Z,931.52
2018-02-15T00:45:45.764Z,931.57
2018-02-15T00:47:18.380Z,931.58
2018-02-15T00:48:49.393Z,931.55
2018-02-15T00:50:21.207Z,931.53
2018-02-15T00:51:53.021Z,931.61
2018-02-15T00:53:24.835Z,931.60
2018-02-15T00:54:56.649Z,931.59
2018-02-15T00:56:28.463Z,931.55
2018-02-15T00:58:00.277Z,931.55
2018-02-15T00:59:32.093Z,931.57
2018-02-15T01:01:03.905Z,931.64
2018-02-15T01:02:35.718Z,931.61
2018-02-15T01:04:07.532Z,931.60
2018-02-15T01:05:39.446Z,931.57
2018-02-15T01:07:57.158Z,931.63
2018-02-15T01:08:43.019Z,931.64
2018-02-15T01:10:14.810Z,931.67
2018-02-15T01:11:46.619Z,931.64
2018-02-15T01:13:18.414Z,931.57
2018-02-15T01:14:50.228Z,931.58
2018-02-15T01:16:22.041Z,931.60
2018-02-15T01:17:53.854Z,931.59
2018-02-15T01:19:25.668Z,931.54
2018-02-15T01:20:57.482Z,931.55
2018-02-15T01:22:29.296Z,931.46
2018-02-15T01:24:01.309Z,931.44
2018-02-15T01:25:32.922Z,931.42
2018-02-15T01:27:04.738Z,931.29
2018-02-15T01:28:36.549Z,931.34
2018-02-15T01:30:08.363Z,931.35
2018-02-15T01:31:40.176Z,931.38
2018-02-15T01:33:11.990Z,931.34
2018-02-15T01:34:43.803Z,931.32
2018-02-15T01:36:15.617Z,931.32
2018-02-15T01:37:47.430Z,931.35
2018-02-15T01:39:19.243Z,931.30
2018-02-15T01:40:51.057Z,931.30
2018-02-15T01:42:23.121Z,931.31
2018-02-15T01:43:54.684Z,931.36
2018-02-15T01:45:26.498Z,931.38
2018-02-15T01:46:58.319Z,931.36
2018-02-15T01:48:30.124Z,931.36
2018-02-15T01:50:01.939Z,931.34
2018-02-15T01:51:33.752Z,931.30
2018-02-15T01:53:05.566Z,931.28
2018-02-15T01:54:37.479Z,931.29
2018-02-15T01:56:09.192Z,931.29
2018-02-15T01:57:41.006Z,931.29
2018-02-15T01:59:12.822Z,931.27
2018-02-15T02:00:44.734Z,931.30
2018-02-15T02:02:16.447Z,931.25
2018-02-15T02:03:48.261Z,931.27
2018-02-15T02:05:20.075Z,931.31
2018-02-15T02:06:51.888Z,931.36
2018-02-15T02:08:23.706Z,931.31
2018-02-15T02:09:55.519Z,931.31
2018-02-15T02:11:27.329Z,931.31
2018-02-15T02:12:59.144Z,931.29
2018-02-15T02:14:30.956Z,931.29
2018-02-15T02:16:02.770Z,931.24
2018-02-15T02:17:34.587Z,931.21
2018-02-15T02:19:06.498Z,931.18
2018-02-15T02:20:38.211Z,931.16
2018-02-15T02:22:10.025Z,931.12
2018-02-15T02:23:41.838Z,931.13
2018-02-15T02:25:13.753Z,931.07
2018-02-15T02:26:45.465Z,931.09
2018-02-15T02:28:17.280Z,931.02
2018-02-15T02:29:49.093Z,931.02
2018-02-15T02:31:21.158Z,931.05
2018-02-15T02:32:52.722Z,931.05
2018-02-15T02:34:24.535Z,931.01
2018-02-15T02:35:56.351Z,931.01
2018-02-15T02:37:28.464Z,930.94
2018-02-15T02:38:59.976Z,930.97
2018-02-15T02:40:31.790Z,931.00
2018-02-15T02:42:03.605Z,930.97
2018-02-15T02:43:35.418Z,930.95
2018-02-15T02:45:07.231Z,930.92
2018-02-15T02:46:39.044Z,930.86
2018-02-15T02:48:10.859Z,930.80
2018-02-15T02:49:42.673Z,930.68
2018-02-15T02:51:14.487Z,930.68
2018-02-15T02:52:46.299Z,930.65
2018-02-15T02:54:18.113Z,930.60
2018-02-15T02:55:50.126Z,930.59
2018-02-15T02:57:21.741Z,930.61
2018-02-15T02:58:53.553Z,930.56
2018-02-15T03:00:25.366Z,930.47
2018-02-15T03:01:57.180Z,930.42
2018-02-15T03:03:28.993Z,930.35
2018-02-15T03:05:00.806Z,930.28
2018-02-15T03:06:32.619Z,930.28
2018-02-15T03:08:04.433Z,930.22
2018-02-15T03:09:36.246Z,930.14
2018-02-15T03:11:08.054Z,930.16
2018-02-15T03:12:39.867Z,930.12
2018-02-15T03:14:11.781Z,930.11
2018-02-15T03:15:43.494Z,930.06
2018-02-15T03:17:15.307Z,930.07
2018-02-15T03:18:47.120Z,930.06
2018-02-15T03:20:19.084Z,930.08
2018-02-15T03:21:50.747Z,930.09
2018-02-15T03:23:22.560Z,930.11
2018-02-15T03:24:54.372Z,930.25
2018-02-15T03:26:26.286Z,930.26
2018-02-15T03:27:57.999Z,930.32
2018-02-15T03:29:29.817Z,930.41
2018-02-15T03:31:01.632Z,930.40
2018-02-15T03:32:33.801Z,930.44
2018-02-15T03:34:05.257Z,930.43
2018-02-15T03:35:37.071Z,930.47
2018-02-15T03:37:08.879Z,930.48
2018-02-15T03:38:40.692Z,930.46
2018-02-15T03:40:12.506Z,930.42
2018-02-15T03:41:44.320Z,930.43
2018-02-15T03:43:16.135Z,930.47
2018-02-15T03:44:47.947Z,930.48
2018-02-15T03:46:19.760Z,930.46
2018-02-15T03:47:51.574Z,930.48
2018-02-15T03:49:23.388Z,930.43
2018-02-15T03:50:55.302Z,930.44
2018-02-15T03:52:27.015Z,930.45
2018-02-15T03:53:58.828Z,930.45
2018-02-15T03:55:30.642Z,930.43
2018-02-15T03:57:02.557Z,930.43
2018-02-15T03:58:34.269Z,930.41
2018-02-15T04:00:06.082Z,930.46
2018-02-15T04:01:37.896Z,930.42
2018-02-15T04:03:09.959Z,930.42
2018-02-15T04:04:41.522Z,930.43
2018-02-15T04:06:13.335Z,930.41
2018-02-15T04:07:45.149Z,930.40
2018-02-15T04:09:17.062Z,930.36
2018-02-15T04:10:48.775Z,930.40
2018-02-15T04:12:20.589Z,930.37
2018-02-15T04:13:52.420Z,930.33
2018-02-15T04:15:24.366Z,930.34
2018-02-15T04:16:56.030Z,930.36
2018-02-15T04:18:27.842Z,930.31
2018-02-15T04:19:59.656Z,930.30
2018-02-15T04:21:31.469Z,930.29
2018-02-15T04:23:03.286Z,930.28
2018-02-15T04:24:35.096Z,930.27
2018-02-15T04:26:06.908Z,930.21
2018-02-15T04:27:38.925Z,930.15
2018-02-15T04:29:10.535Z,930.10
2018-02-15T04:30:42.350Z,930.08
2018-02-15T04:32:14.162Z,930.02
2018-02-15T04:33:45.975Z,929.99
2018-02-15T04:35:17.788Z,929.95
2018-02-15T04:36:49.603Z,929.96
2018-02-15T04:38:21.414Z,929.97
2018-02-15T04:39:53.228Z,929.97
2018-02-15T04:41:25.041Z,930.01
2018-02-15T04:42:56.854Z,930.00
2018-02-15T04:44:28.667Z,929.98
2018-02-15T04:46:00.832Z,930.00
2018-02-15T04:47:32.293Z,930.01
2018-02-15T04:49:04.107Z,929.98
2018-02-15T04:50:35.919Z,929.94
2018-02-15T04:52:07.732Z,929.97
2018-02-15T04:53:39.546Z,929.87
2018-02-15T04:55:11.359Z,929.82
2018-02-15T04:56:43.173Z,929.88
2018-02-15T04:58:15.085Z,929.85
2018-02-15T04:59:46.797Z,929.80
2018-02-15T05:01:18.611Z,929.82
2018-02-15T05:02:50.427Z,929.82
2018-02-15T05:04:22.337Z,929.75
2018-02-15T05:05:54.048Z,929.76
2018-02-15T05:07:25.862Z,929.77
2018-02-15T05:08:57.678Z,929.79
2018-02-15T05:10:29.638Z,929.80
2018-02-15T05:12:01.300Z,929.79
2018-02-15T05:13:33.113Z,929.73
2018-02-15T05:15:04.926Z,929.75
2018-02-15T05:16:36.889Z,929.78
2018-02-15T05:18:08.551Z,929.77
2018-02-15T05:19:40.365Z,929.68
2018-02-15T05:21:12.177Z,929.70
2018-02-15T05:22:44.092Z,929.69
2018-02-15T05:24:15.804Z,929.70
2018-02-15T05:25:47.619Z,929.68
2018-02-15T05:27:19.430Z,929.66
2018-02-15T05:28:51.344Z,929.60
2018-02-15T05:30:23.056Z,929.60
2018-02-15T05:31:54.869Z,929.57
2018-02-15T05:33:26.682Z,929.55
2018-02-15T05:34:58.746Z,929.54
2018-02-15T05:36:30.308Z,929.52
2018-02-15T05:38:02.121Z,929.53
2018-02-15T05:39:33.934Z,929.54
2018-02-15T05:41:05.847Z,929.50
2018-02-15T05:42:37.560Z,929.54
2018-02-15T05:44:09.373Z,929.55
2018-02-15T05:45:41.186Z,929.55
2018-02-15T05:47:13.000Z,929.57
2018-02-15T05:48:44.814Z,929.58
2018-02-15T05:50:16.625Z,929.59
2018-02-15T05:51:48.438Z,929.61
2018-02-15T05:53:20.251Z,929.53
2018-02-15T05:54:52.064Z,929.52
2018-02-15T05:56:23.877Z,929.54
2018-02-15T05:57:55.690Z,929.58
2018-02-15T05:59:27.705Z,929.53
2018-02-15T06:00:59.317Z,929.56
2018-02-15T06:02:31.131Z,929.57
2018-02-15T06:04:02.971Z,929.61
2018-02-15T06:05:35.025Z,929.59
2018-02-15T06:07:06.571Z,929.61
2018-02-15T06:08:38.385Z,929.61
2018-02-15T06:10:10.198Z,929.68
2018-02-15T06:11:42.011Z,929.67
2018-02-15T06:13:13.824Z,929.62
2018-02-15T06:14:45.637Z,929.68
2018-02-15T06:16:17.451Z,929.64
2018-02-15T06:17:49.516Z,929.66
2018-02-15T06:19:21.078Z,929.64
2018-02-15T06:20:52.891Z,929.67
2018-02-15T06:22:24.704Z,929.64
2018-02-15T06:23:56.517Z,929.70
2018-02-15T06:25:28.330Z,929.70
2018-02-15T06:27:00.143Z,929.68
2018-02-15T06:28:31.957Z,929.71
2018-02-15T06:30:03.871Z,929.73
2018-02-15T06:31:35.584Z,929.78
2018-02-15T06:33:07.397Z,929.82
2018-02-15T06:34:39.213Z,929.80
2018-02-15T06:36:11.374Z,929.80
2018-02-15T06:37:42.836Z,929.79
2018-02-15T06:39:14.651Z,929.79
2018-02-15T06:40:46.463Z,929.81
2018-02-15T06:42:18.276Z,929.81
2018-02-15T06:43:50.090Z,929.81
2018-02-15T06:45:21.904Z,929.80
2018-02-15T06:46:53.717Z,929.85
2018-02-15T06:48:25.680Z,929.89
2018-02-15T06:49:57.343Z,929.89
2018-02-15T06:51:29.155Z,929.91
2018-02-15T06:53:00.997Z,929.88
2018-02-15T06:54:32.882Z,929.93
2018-02-15T06:56:04.598Z,929.91
2018-02-15T06:57:36.408Z,929.90
2018-02-15T06:59:08.222Z,929.95
2018-02-15T07:00:40.136Z,929.97
2018-02-15T07:02:11.848Z,929.95
2018-02-15T07:03:43.661Z,929.97
2018-02-15T07:05:15.475Z,930.00
2018-02-15T07:06:47.538Z,930.02
2018-02-15T07:08:19.103Z,930.02
2018-02-15T07:09:50.915Z,930.02
2018-02-15T07:11:22.728Z,930.04
2018-02-15T07:12:54.642Z,930.05
2018-02-15T07:14:26.355Z,930.01
2018-02-15T07:15:58.168Z,930.04
2018-02-15T07:17:29.981Z,930.00
2018-02-15T07:19:01.795Z,929.98
2018-02-15T07:20:33.639Z,929.99
2018-02-15T07:22:05.422Z,929.97
2018-02-15T07:23:37.234Z,930.01
2018-02-15T07:25:09.048Z,929.93
2018-02-15T07:26:40.867Z,929.94
2018-02-15T07:28:12.704Z,929.97
2018-02-15T07:29:44.508Z,929.99
2018-02-15T07:31:16.644Z,929.96
2018-02-15T07:32:48.114Z,930.00
2018-02-15T07:34:19.927Z,929.95
2018-02-15T07:35:51.771Z,930.00
2018-02-15T07:37:23.804Z,930.02
2018-02-15T07:38:55.367Z,930.02
2018-02-15T07:40:27.180Z,930.00
2018-02-15T07:41:58.994Z,930.01
2018-02-15T07:43:30.807Z,930.00
2018-02-15T07:45:02.620Z,930.05
2018-02-15T07:46:34.433Z,930.09
2018-02-15T07:48:06.246Z,930.10
2018-02-15T07:49:38.312Z,930.12
2018-02-15T07:51:09.874Z,930.09
2018-02-15T07:52:41.687Z,930.11
2018-02-15T07:54:13.501Z,930.13
2018-02-15T07:55:45.465Z,930.10
2018-02-15T07:57:17.128Z,930.07
2018-02-15T07:58:48.941Z,930.11
2018-02-15T08:00:20.755Z,930.10
2018-02-15T08:01:52.668Z,930.06
2018-02-15T08:03:24.382Z,930.08
2018-02-15T08:04:56.195Z,930.05
2018-02-15T08:06:28.009Z,930.03
2018-02-15T08:08:00.173Z,930.03
2018-02-15T08:09:31.635Z,929.99
2018-02-15T08:11:03.449Z,929.99
2018-02-15T08:12:35.262Z,929.99
2018-02-15T08:14:07.076Z,930.02
2018-02-15T08:15:38.894Z,930.00
2018-02-15T08:17:10.702Z,930.02
2018-02-15T08:18:42.515Z,929.99
2018-02-15T08:20:14.328Z,930.01
2018-02-15T08:21:46.141Z,930.04
2018-02-15T08:23:17.955Z,930.05
2018-02-15T08:24:49.768Z,930.07
2018-02-15T08:26:21.832Z,930.09
2018-02-15T08:27:53.394Z,930.09
2018-02-15T08:29:25.209Z,930.13
2018-02-15T08:30:57.022Z,930.15
2018-02-15T08:32:28.934Z,930.15
2018-02-15T08:34:00.647Z,930.17
2018-02-15T08:35:32.461Z,930.20
2018-02-15T08:37:04.276Z,930.25
2018-02-15T08:38:36.339Z,930.22
2018-02-15T08:40:07.902Z,930.23
2018-02-15T08:41:39.715Z,930.25
2018-02-15T08:43:11.529Z,930.27
2018-02-15T08:44:43.442Z,930.26
2018-02-15T08:46:15.156Z,930.26
2018-02-15T08:47:46.969Z,930.26
2018-02-15T08:49:18.783Z,930.21
2018-02-15T08:50:50.597Z,930.25
2018-02-15T08:52:22.410Z,930.24
2018-02-15T08:53:54.224Z,930.23
2018-02-15T08:55:26.038Z,930.25
2018-02-15T08:56:57.854Z,930.29
2018-02-15T08:58:29.665Z,930.29
2018-02-15T09:00:01.484Z,930.30
2018-02-15T09:01:33.292Z,930.23
2018-02-15T09:03:05.306Z,930.28
2018-02-15T09:04:36.920Z,930.31
2018-02-15T09:06:08.733Z,930.32
2018-02-15T09:07:40.548Z,930.36
2018-02-15T09:09:12.611Z,930.37
2018-02-15T09:10:44.174Z,930.43
2018-02-15T09:12:16.003Z,930.46
2018-02-15T09:13:47.803Z,930.50
2018-02-15T09:15:19.616Z,930.49
2018-02-15T09:16:51.430Z,930.57
2018-02-15T09:18:23.243Z,930.56
2018-02-15T09:19:55.057Z,930.60
2018-02-15T09:21:26.972Z,930.64
2018-02-15T09:22:58.685Z,930.60
2018-02-15T09:24:30.500Z,930.63
2018-02-15T09:26:02.313Z,930.66
2018-02-15T09:27:34.128Z,930.65
2018-02-15T09:29:05.942Z,930.62
2018-02-15T09:30:37.759Z,930.65
2018-02-15T09:32:09.571Z,930.66
2018-02-15T09:33:41.384Z,930.59
2018-02-15T09:35:13.198Z,930.66
2018-02-15T09:36:45.015Z,930.65
2018-02-15T09:38:16.828Z,930.67
2018-02-15T09:39:48.994Z,930.72
2018-02-15T09:41:20.457Z,930.79
2018-02-15T09:42:52.271Z,930.81
2018-02-15T09:44:24.085Z,930.82
2018-02-15T09:45:55.899Z,930.82
2018-02-15T09:47:27.713Z,930.84
2018-02-15T09:48:59.528Z,930.86
2018-02-15T09:50:31.343Z,930.87
2018-02-15T09:52:03.157Z,930.86
2018-02-15T09:53:35.002Z,930.83
2018-02-15T09:55:06.787Z,930.81
2018-02-15T09:56:38.605Z,930.74
2018-02-15T09:58:10.517Z,930.75
2018-02-15T09:59:42.257Z,930.81
2018-02-15T10:01:14.046Z,930.81
2018-02-15T10:02:45.861Z,930.81
2018-02-15T10:04:17.675Z,930.87
2018-02-15T10:05:49.549Z,930.90
2018-02-15T10:07:21.665Z,930.94
2018-02-15T10:08:53.280Z,930.88
2018-02-15T10:10:26.104Z,930.92
2018-02-15T10:11:56.759Z,930.95
2018-02-15T10:13:28.565Z,930.89
2018-02-15T10:15:00.870Z,930.96
2018-02-15T10:16:32.509Z,930.97
2018-02-15T10:18:04.063Z,930.98
2018-02-15T10:19:37.790Z,930.91
2018-02-15T10:21:07.850Z,931.07
2018-02-15T10:22:39.754Z,931.07
2018-02-15T10:24:11.469Z,931.07
2018-02-15T10:25:43.313Z,931.06
2018-02-15T10:27:14.902Z,931.02
2018-02-15T10:28:46.763Z,931.02
2018-02-15T10:30:19.133Z,930.99
2018-02-15T10:31:50.430Z,930.98
2018-02-15T10:33:22.592Z,930.99
2018-02-15T10:34:54.440Z,931.11
2018-02-15T10:36:25.893Z,931.17
2018-02-15T10:37:58.082Z,931.09
2018-02-15T10:39:29.556Z,931.03
2018-02-15T10:41:01.255Z,930.94
2018-02-15T10:42:33.072Z,931.02
2018-02-15T10:44:05.134Z,931.03
2018-02-15T10:45:36.832Z,931.04
2018-02-15T10:47:09.057Z,931.08
2018-02-15T10:48:40.347Z,931.19
2018-02-15T10:50:12.158Z,931.20
2018-02-15T10:51:43.980Z,931.23
2018-02-15T10:53:16.096Z,931.24
2018-02-15T10:54:47.617Z,931.23
2018-02-15T10:56:19.428Z,931.25
2018-02-15T10:57:51.251Z,931.33
2018-02-15T10:59:23.142Z,931.38
2018-02-15T11:00:54.884Z,931.47
2018-02-15T11:02:26.698Z,931.61
2018-02-15T11:03:58.515Z,931.46
2018-02-15T11:05:30.434Z,931.51
2018-02-15T11:07:02.204Z,931.54
2018-02-15T11:08:34.045Z,931.59
2018-02-15T11:10:05.791Z,931.38
2018-02-15T11:11:37.710Z,931.38
2018-02-15T11:13:09.459Z,931.37
2018-02-15T11:14:41.246Z,931.37
2018-02-15T11:16:13.065Z,931.44
2018-02-15T11:17:45.105Z,931.49
2018-02-15T11:19:16.701Z,931.50
2018-02-15T11:20:48.522Z,931.52
2018-02-15T11:22:20.337Z,931.60
2018-02-15T11:23:52.156Z,931.62
2018-02-15T11:25:23.973Z,931.62
2018-02-15T11:26:55.792Z,931.69
2018-02-15T11:28:27.608Z,931.69
2018-02-15T11:29:59.526Z,931.78
2018-02-15T11:31:31.307Z,931.78
2018-02-15T11:33:03.062Z,931.63
2018-02-15T11:34:34.880Z,931.74
2018-02-15T11:36:06.698Z,931.58
2018-02-15T11:37:38.517Z,931.70
2018-02-15T11:39:10.337Z,931.71
2018-02-15T11:40:42.159Z,931.71
2018-02-15T11:42:13.972Z,931.74
2018-02-15T11:43:45.793Z,931.74
2018-02-15T11:45:17.613Z,931.70
2018-02-15T11:46:49.428Z,931.68
2018-02-15T11:48:21.349Z,931.54
2018-02-15T11:49:53.071Z,931.57
2018-02-15T11:51:24.891Z,931.59
2018-02-15T11:52:56.724Z,931.53
2018-02-15T11:54:28.524Z,931.57
2018-02-15T11:56:00.342Z,931.62
2018-02-15T11:57:32.161Z,931.76
2018-02-15T11:59:03.980Z,931.67
2018-02-15T12:00:36.731Z,931.66
2018-02-15T12:02:07.616Z,931.68
2018-02-15T12:03:39.434Z,931.88
2018-02-15T12:05:11.254Z,931.77
2018-02-15T12:06:43.272Z,931.74
2018-02-15T12:12:01.372Z,931.90
2018-02-15T12:13:13.984Z,931.90
2018-02-15T12:14:45.784Z,931.86
2018-02-15T12:16:17.603Z,931.84
2018-02-15T12:17:49.421Z,931.89
2018-02-15T12:19:21.240Z,931.87
2018-02-15T12:20:53.058Z,931.85
2018-02-15T12:22:24.879Z,931.93
2018-02-15T12:23:56.964Z,931.95
2018-02-15T12:25:28.520Z,931.96
2018-02-15T12:27:00.331Z,931.99
2018-02-15T12:28:32.149Z,932.03
2018-02-15T12:30:03.968Z,932.05
2018-02-15T12:31:35.786Z,932.11
2018-02-15T12:33:07.602Z,932.04
2018-02-15T12:34:39.425Z,931.97
2018-02-15T12:36:11.337Z,931.95
2018-02-15T12:37:43.111Z,932.04
2018-02-15T12:39:14.934Z,932.02
2018-02-15T12:40:46.700Z,932.10
2018-02-15T12:42:18.621Z,932.49
2018-02-15T12:43:50.329Z,932.78
2018-02-15T12:45:22.161Z,932.69
2018-02-15T12:46:53.969Z,932.77
2018-02-15T12:48:25.786Z,932.79
2018-02-15T12:49:57.604Z,932.93
2018-02-15T12:51:29.429Z,932.61
2018-02-15T12:53:01.245Z,932.65
2018-02-15T12:54:33.073Z,932.53
2018-02-15T12:56:04.889Z,932.60
2018-02-15T12:57:36.711Z,932.52
2018-02-15T12:59:08.552Z,932.55
2018-02-15T13:00:40.456Z,932.97
2018-02-15T13:02:12.178Z,932.86
2018-02-15T13:03:44.000Z,932.72
2018-02-15T13:08:43.202Z,932.25
2018-02-15T13:10:15.026Z,932.10
2018-02-15T13:11:46.829Z,931.99
2018-02-15T13:13:18.652Z,932.06
2018-02-15T13:14:50.478Z,932.36
2018-02-15T13:16:22.451Z,932.59
2018-02-15T13:17:54.216Z,932.25
2018-02-15T13:19:25.938Z,932.16
2018-02-15T13:20:57.778Z,932.25
2018-02-15T13:22:29.576Z,932.16
2018-02-15T13:24:01.398Z,932.26
2018-02-15T13:25:33.218Z,932.27
2018-02-15T13:27:05.040Z,932.17
2018-02-15T13:32:04.140Z,932.14
2018-02-15T13:33:35.961Z,932.11
2018-02-15T13:35:08.243Z,932.21
2018-02-15T13:36:39.587Z,932.35
2018-02-15T13:38:11.408Z,932.36
2018-02-15T13:39:43.230Z,932.21
2018-02-15T13:41:15.157Z,932.53
2018-02-15T13:42:46.875Z,932.48
2018-02-15T13:44:18.692Z,932.37
2018-02-15T13:45:50.514Z,932.57
2018-02-15T13:47:22.339Z,932.53
2018-02-15T13:48:54.161Z,932.42
2018-02-15T13:50:26.105Z,932.43
2018-02-15T13:53:41.645Z,932.09
2018-02-15T13:55:13.469Z,931.90
2018-02-15T13:56:45.293Z,931.83
2018-02-15T13:58:17.163Z,931.82
2018-02-15T13:59:48.941Z,931.96
2018-02-15T14:01:20.781Z,932.12
2018-02-15T14:02:52.590Z,932.09
2018-02-15T14:04:24.411Z,932.13
2018-02-15T14:05:56.234Z,932.26
2018-02-15T14:07:28.054Z,932.11
2018-02-15T14:08:59.878Z,932.06
2018-02-15T14:10:31.951Z,932.06
2018-02-15T14:12:03.589Z,932.13
2018-02-15T14:13:35.349Z,932.30
2018-02-15T14:23:39.809Z,932.20
2018-02-15T14:25:05.329Z,932.16
2018-02-15T14:26:37.351Z,932.12
2018-02-15T14:28:08.978Z,932.14
2018-02-15T14:29:40.794Z,932.11
2018-02-15T14:31:12.646Z,931.99
2018-02-15T14:32:44.436Z,932.01
2018-02-15T14:34:16.259Z,932.08
2018-02-15T14:35:48.079Z,932.12
2018-02-15T14:37:19.901Z,932.04
2018-02-15T14:38:51.721Z,932.02
2018-02-15T14:40:23.612Z,932.06
2018-02-15T14:41:55.364Z,932.12
2018-02-15T14:43:27.185Z,932.19
2018-02-15T14:44:59.104Z,932.29
2018-02-15T14:46:30.841Z,932.39
2018-02-15T14:48:02.646Z,932.55
2018-02-15T14:49:34.466Z,932.48
2018-02-15T14:51:06.387Z,932.34
2018-02-15T14:52:38.109Z,932.37
2018-02-15T14:54:09.929Z,932.28
2018-02-15T14:55:41.750Z,932.23
2018-02-15T14:57:13.570Z,932.20
2018-02-15T14:58:45.391Z,932.11
2018-02-15T15:00:17.213Z,932.15
2018-02-15T15:01:49.038Z,932.14
2018-02-15T15:03:20.957Z,932.08
2018-02-15T15:04:52.764Z,932.18
2018-02-15T15:06:24.507Z,932.37
2018-02-15T15:07:56.389Z,932.43
2018-02-15T15:09:28.141Z,932.53
2018-02-15T15:10:59.985Z,932.49
2018-02-15T15:12:31.829Z,932.16
2018-02-15T15:14:03.610Z,932.10
2018-02-15T15:15:35.487Z,932.32
2018-02-15T15:17:07.259Z,932.22
2018-02-15T15:18:39.084Z,932.01
2018-02-15T15:20:10.908Z,931.98
2018-02-15T15:21:42.835Z,931.97
2018-02-15T15:23:14.559Z,931.95
2018-02-15T15:24:46.390Z,931.89
2018-02-15T15:26:18.207Z,931.80
2018-02-15T15:27:50.032Z,931.81
2018-02-15T15:29:21.858Z,931.76
2018-02-15T15:30:53.736Z,931.84
2018-02-15T15:32:25.507Z,931.88
2018-02-15T15:33:57.330Z,932.07
2018-02-15T15:35:29.153Z,931.92
2018-02-15T15:37:00.976Z,931.87
2018-02-15T15:38:32.800Z,932.18
2018-02-15T15:40:04.724Z,932.23
2018-02-15T15:41:36.448Z,932.25
2018-02-15T15:43:08.273Z,932.24
2018-02-15T15:44:40.359Z,932.11
2018-02-15T15:46:11.923Z,931.85
2018-02-15T15:47:43.748Z,931.94
2018-02-15T15:49:15.570Z,931.69
2018-02-15T15:50:47.424Z,931.73
2018-02-15T15:52:19.228Z,931.64
2018-02-15T15:53:51.049Z,931.46
2018-02-15T15:55:22.896Z,931.45
2018-02-15T15:56:54.701Z,931.46
2018-02-15T15:58:26.626Z,931.52
2018-02-15T15:59:58.351Z,931.43
2018-02-15T16:01:30.175Z,931.51
2018-02-15T16:03:01.998Z,931.59
2018-02-15T16:04:33.824Z,931.58
2018-02-15T16:06:05.648Z,931.66
2018-02-15T16:07:37.472Z,931.71
2018-02-15T16:09:09.297Z,931.69
2018-02-15T16:10:41.122Z,931.80
2018-02-15T16:12:12.987Z,931.82
2018-02-15T16:13:44.773Z,931.80
2018-02-15T16:15:16.598Z,931.74
2018-02-15T16:16:48.520Z,931.93
2018-02-15T16:18:20.247Z,931.95
2018-02-15T16:19:52.069Z,931.79
2018-02-15T16:21:23.990Z,931.83
2018-02-15T16:22:55.721Z,931.67
2018-02-15T16:24:27.551Z,931.64
2018-02-15T16:25:59.372Z,931.57
2018-02-15T16:28:17.173Z,931.57
2018-02-15T16:29:03.025Z,931.59
2018-02-15T16:30:34.851Z,931.46
2018-02-15T16:32:06.676Z,931.58
2018-02-15T16:33:38.602Z,931.65
2018-02-15T16:35:10.327Z,931.55
2018-02-15T16:36:42.153Z,931.45
2018-02-15T16:38:13.978Z,931.50
2018-02-15T16:39:45.803Z,931.51
2018-02-15T16:41:17.627Z,931.46
2018-02-15T16:42:49.449Z,931.30
2018-02-15T16:44:21.277Z,931.23
2018-02-15T16:45:53.097Z,931.11
2018-02-15T16:47:24.920Z,931.16
2018-02-15T16:48:56.744Z,931.17
2018-02-15T16:52:00.692Z,931.19
2018-02-15T16:53:32.736Z,931.18
2018-02-15T16:55:04.035Z,931.17
2018-02-15T16:56:35.858Z,931.13
2018-02-15T16:58:07.780Z,931.27
2018-02-15T16:59:39.689Z,931.34
2018-02-15T17:01:11.322Z,931.38
2018-02-15T17:02:43.145Z,931.44
2018-02-15T17:04:14.966Z,931.37
2018-02-15T17:05:46.787Z,931.34
2018-02-15T17:08:50.430Z,931.36
2018-02-15T17:10:22.350Z,931.38
2018-02-15T17:11:54.071Z,931.35
2018-02-15T17:13:25.985Z,931.31
2018-02-15T17:14:57.714Z,931.21
2018-02-15T17:16:29.537Z,931.24
2018-02-15T17:18:01.358Z,931.32
2018-02-15T17:19:33.178Z,931.04
2018-02-15T17:21:06.567Z,931.14
2018-02-15T17:22:36.925Z,931.31
2018-02-15T17:24:08.641Z,931.39
2018-02-15T17:25:40.684Z,931.29
2018-02-15T17:27:12.850Z,931.27
2018-02-15T17:28:44.723Z,931.22
2018-02-15T17:30:15.928Z,931.24
2018-02-15T17:31:47.748Z,931.12
2018-02-15T17:33:19.570Z,931.15
2018-02-15T17:34:51.400Z,931.11
2018-02-15T17:36:23.213Z,931.06
2018-02-15T17:37:55.067Z,931.07
2018-02-15T17:39:26.877Z,931.10
2018-02-15T17:40:58.692Z,931.02
2018-02-15T17:44:02.319Z,930.98
2018-02-15T17:45:34.142Z,930.98
2018-02-15T17:47:06.059Z,930.93
2018-02-15T17:48:37.781Z,930.96
2018-02-15T17:50:09.603Z,930.98
2018-02-15T17:53:25.125Z,931.02
2018-02-15T17:54:56.875Z,930.97
2018-02-15T17:56:28.699Z,930.93
2018-02-15T17:59:32.338Z,930.93
2018-02-15T18:01:04.159Z,930.92
2018-02-15T18:02:35.980Z,930.91
2018-02-15T18:04:07.802Z,930.91
2018-02-15T18:05:39.784Z,930.94
2018-02-15T18:08:43.350Z,930.92
2018-02-15T18:10:15.081Z,930.91
2018-02-15T18:11:47.031Z,930.85
2018-02-15T18:13:18.739Z,930.85
2018-02-15T18:31:04.746Z,930.69
2018-02-15T18:31:44.119Z,930.71
2018-02-15T18:33:15.948Z,930.75
2018-02-15T18:34:47.758Z,930.68
2018-02-15T18:36:19.579Z,930.72
2018-02-15T18:37:51.397Z,930.74
2018-02-15T18:39:23.315Z,930.80
2018-02-15T18:40:55.074Z,930.71
2018-02-15T18:56:16.597Z,930.58
2018-02-15T18:57:48.114Z,930.59
2018-02-15T18:59:19.930Z,930.57
2018-02-15T19:00:51.829Z,930.59
2018-02-15T19:02:23.496Z,930.52
2018-02-15T19:03:55.315Z,930.48
2018-02-15T19:05:27.170Z,930.49
2018-02-15T19:06:58.952Z,930.51
2018-02-15T19:08:30.772Z,930.50
2018-02-15T19:10:02.667Z,930.51
2018-02-15T19:11:34.409Z,930.44
2018-02-15T19:13:06.328Z,930.39
2018-02-15T19:14:38.045Z,930.39
2018-02-15T19:16:09.893Z,930.36
2018-02-15T19:17:41.714Z,930.37
2018-02-15T19:19:13.502Z,930.35
2018-02-15T19:20:45.320Z,930.33
2018-02-15T19:22:17.138Z,930.34
2018-02-15T19:23:48.956Z,930.32
2018-02-15T19:25:20.775Z,930.30
2018-02-15T19:26:52.593Z,930.29
2018-02-15T19:28:24.412Z,930.32
2018-02-15T19:29:56.230Z,930.31
2018-02-15T19:31:28.246Z,930.32
2018-02-15T19:32:59.865Z,930.34
2018-02-15T19:34:31.683Z,930.38
2018-02-15T19:36:03.500Z,930.38
2018-02-15T19:37:35.318Z,930.35
2018-02-15T19:39:07.135Z,930.37
2018-02-15T19:40:38.954Z,930.33
2018-02-15T19:42:10.775Z,930.29
2018-02-15T19:43:42.590Z,930.30
2018-02-15T19:45:14.406Z,930.28
2018-02-15T19:46:46.225Z,930.26
2018-02-15T19:48:18.041Z,930.23
2018-02-15T19:49:49.961Z,930.26
2018-02-15T19:51:21.699Z,930.27
2018-02-15T19:52:53.495Z,930.26
2018-02-15T19:54:25.323Z,930.31
2018-02-15T19:55:57.168Z,930.28
2018-02-15T19:58:02.181Z,930.33
2018-02-15T19:59:00.766Z,930.40
2018-02-15T20:00:32.595Z,930.40
2018-02-15T20:02:04.500Z,930.46
2018-02-15T20:03:36.216Z,930.43
2018-02-15T20:05:08.034Z,930.44